Time;durP1;ratioP1;P1;durP2;ratioP2;P2;SDS_P1;SDS_P2;PMS_P1;PMS_P2;Temp;Humidity;BMP_temperature;BMP_pressure;BME280_temperature;BME280_humidity;BME280_pressure;Samples;Min_cycle;Max_cycle;Signal;HPM_P1;HPM_P2
2022/05/10 00:00:26;;;;;;;0.40;0.40;;;12.20;1.00;;;;;;5094140;28;20270;-77
2022/05/10 00:02:54;;;;;;;0.50;0.50;;;12.20;1.00;;;;;;5094332;28;20214;-77
2022/05/10 00:05:26;;;;;;;0.40;0.40;;;12.20;1.00;;;;;;5094403;28;20676;-77
2022/05/10 00:07:53;;;;;;;0.47;0.47;;;12.20;1.00;;;;;;5094241;28;20177;-77
2022/05/10 00:10:18;;;;;;;0.40;0.40;;;12.10;1.00;;;;;;5093617;28;20269;-77
2022/05/10 00:12:44;;;;;;;0.50;0.50;;;12.10;1.00;;;;;;5094550;28;20197;-77
2022/05/10 00:15:10;;;;;;;0.60;0.60;;;12.10;1.00;;;;;;5094211;28;20170;-76
2022/05/10 00:17:40;;;;;;;0.40;0.40;;;12.00;1.00;;;;;;5094219;28;20170;-77
2022/05/10 00:20:11;;;;;;;0.47;0.47;;;12.00;1.00;;;;;;5093444;28;20635;-76
2022/05/10 00:22:37;;;;;;;0.50;0.50;;;12.00;1.00;;;;;;5093752;28;20206;-76
2022/05/10 00:25:05;;;;;;;0.50;0.50;;;12.00;1.00;;;;;;5093750;28;20172;-76
2022/05/10 00:27:31;;;;;;;0.50;0.50;;;12.00;1.00;;;;;;5094017;28;20223;-77
2022/05/10 00:29:56;;;;;;;0.50;0.50;;;11.90;1.00;;;;;;5093672;28;20170;-77
2022/05/10 00:32:26;;;;;;;0.50;0.50;;;11.90;1.00;;;;;;5093472;28;20198;-76
2022/05/10 00:34:52;;;;;;;0.43;0.43;;;11.90;1.00;;;;;;5093640;28;20174;-77
2022/05/10 00:37:20;;;;;;;0.47;0.47;;;11.90;1.00;;;;;;5093476;28;20261;-77
2022/05/10 00:39:46;;;;;;;0.43;0.43;;;11.80;1.00;;;;;;5092767;28;20170;-77
2022/05/10 00:42:38;;;;;;;0.40;0.40;;;11.80;1.00;;;;;;5093546;28;20262;-77
2022/05/10 00:45:15;;;;;;;0.50;0.50;;;11.70;1.00;;;;;;5093402;28;20170;-77
2022/05/10 00:47:49;;;;;;;0.60;0.60;;;11.70;1.00;;;;;;5093225;28;20264;-77
2022/05/10 00:50:24;;;;;;;0.40;0.40;;;11.70;1.00;;;;;;5092661;28;20549;-76
2022/05/10 00:53:28;;;;;;;0.50;0.50;;;11.70;1.00;;;;;;5093134;28;20173;-77
2022/05/10 00:55:58;;;;;;;0.50;0.50;;;11.70;1.00;;;;;;5093461;28;20185;-77
2022/05/10 00:59:10;;;;;;;0.50;0.50;;;11.70;1.00;;;;;;5093339;28;20183;-77
2022/05/10 01:01:37;;;;;;;0.43;0.43;;;11.70;1.00;;;;;;5054035;28;20219;-77
2022/05/10 01:04:25;;;;;;;0.60;0.60;;;11.60;1.00;;;;;;5093210;28;20181;-77
2022/05/10 01:07:11;;;;;;;0.60;0.60;;;11.60;1.00;;;;;;5093204;28;20188;-77
2022/05/10 01:10:15;;;;;;;0.50;0.50;;;11.50;1.00;;;;;;5092980;28;20172;-77
2022/05/10 01:13:09;;;;;;;0.50;0.50;;;11.40;1.00;;;;;;5042956;28;20185;-78
2022/05/10 01:15:38;;;;;;;0.50;0.50;;;11.40;1.00;;;;;;5093868;28;20235;-78
2022/05/10 01:18:04;;;;;;;0.50;0.50;;;11.30;1.00;;;;;;5093564;28;20271;-78
2022/05/10 01:20:41;;;;;;;0.57;0.57;;;11.40;1.00;;;;;;5094137;28;20174;-78
2022/05/10 01:23:45;;;;;;;0.60;0.60;;;11.30;2.20;;;;;;5094389;28;20213;-78
2022/05/10 01:26:23;;;;;;;0.57;0.57;;;11.30;1.00;;;;;;5093011;28;20173;-78
2022/05/10 01:28:54;;;;;;;0.50;0.50;;;11.30;1.00;;;;;;5092993;28;20214;-78
2022/05/10 01:31:33;;;;;;;0.50;0.50;;;11.30;1.00;;;;;;5092569;28;20208;-77
2022/05/10 01:34:11;;;;;;;0.60;0.60;;;11.20;1.00;;;;;;5092625;28;20196;-78
2022/05/10 01:36:43;;;;;;;0.57;0.57;;;11.20;1.00;;;;;;5093117;28;20176;-78
2022/05/10 01:39:30;;;;;;;0.50;0.50;;;11.20;1.00;;;;;;5092748;28;20182;-78
2022/05/10 01:42:01;;;;;;;0.50;0.50;;;11.10;1.00;;;;;;5093364;28;20209;-78
2022/05/10 01:44:44;;;;;;;0.60;0.60;;;11.10;1.00;;;;;;5093505;28;20631;-78
2022/05/10 01:47:29;;;;;;;0.57;0.57;;;11.10;1.00;;;;;;5094102;28;20265;-79
2022/05/10 01:50:26;;;;;;;0.67;0.67;;;11.10;1.00;;;;;;5093047;28;20184;-78
2022/05/10 01:53:06;;;;;;;0.50;0.50;;;11.10;1.00;;;;;;5093615;28;20241;-78
2022/05/10 01:55:37;;;;;;;0.50;0.50;;;11.10;1.00;;;;;;5093558;28;20192;-78
2022/05/10 01:58:14;;;;;;;0.50;0.50;;;11.10;1.00;;;;;;5093213;28;20686;-78
2022/05/10 02:00:41;;;;;;;0.50;0.50;;;11.00;12.70;;;;;;5092607;28;20215;-78
2022/05/10 02:03:42;;;;;;;0.50;0.50;;;11.00;12.10;;;;;;5093019;28;20216;-78
2022/05/10 02:06:08;;;;;;;0.50;0.50;;;11.00;11.90;;;;;;5080463;28;20193;-78
2022/05/10 02:09:00;;;;;;;0.50;0.50;;;10.90;1.00;;;;;;5093309;28;20224;-78
2022/05/10 02:11:27;;;;;;;0.50;0.50;;;10.90;5.00;;;;;;5091861;28;20189;-77
2022/05/10 02:14:04;;;;;;;0.60;0.60;;;10.80;1.00;;;;;;5073672;28;20181;-78
2022/05/10 02:16:52;;;;;;;0.60;0.60;;;10.80;6.30;;;;;;5092054;28;20169;-77
2022/05/10 02:19:28;;;;;;;0.70;0.70;;;10.90;19.50;;;;;;5091564;28;20268;-77
2022/05/10 02:22:23;;;;;;;0.60;0.60;;;11.00;17.00;;;;;;5091910;28;20209;-77
2022/05/10 02:24:54;;;;;;;0.60;0.60;;;10.90;7.30;;;;;;5087808;28;20186;-75
2022/05/10 02:27:24;;;;;;;0.60;0.60;;;10.90;1.00;;;;;;5091888;28;20230;-76
2022/05/10 02:30:08;;;;;;;0.60;0.60;;;10.80;1.00;;;;;;5091452;28;20177;-76
2022/05/10 02:35:22;;;;;;;0.60;0.60;;;10.70;1.00;;;;;;5091751;28;20181;-76
2022/05/10 02:37:48;;;;;;;0.50;0.50;;;10.60;1.00;;;;;;5091733;28;20173;-77
2022/05/10 02:40:14;;;;;;;0.50;0.50;;;10.60;1.00;;;;;;5090947;28;20178;-76
2022/05/10 02:42:41;;;;;;;0.50;0.50;;;10.60;1.00;;;;;;5091303;28;20601;-75
2022/05/10 02:45:07;;;;;;;0.60;0.60;;;10.60;16.20;;;;;;5092262;28;20198;-76
2022/05/10 02:47:34;;;;;;;0.50;0.50;;;10.50;20.80;;;;;;5092310;28;20185;-77
2022/05/10 02:50:00;;;;;;;0.60;0.60;;;10.50;24.00;;;;;;5091420;28;20220;-77
2022/05/10 02:52:27;;;;;;;0.53;0.53;;;10.50;18.00;;;;;;5091644;28;20196;-77
2022/05/10 02:55:02;;;;;;;0.60;0.60;;;10.40;23.90;;;;;;5089531;28;20181;-77
2022/05/10 02:57:29;;;;;;;0.60;0.60;;;10.40;18.70;;;;;;5087923;28;20189;-77
2022/05/10 02:59:59;;;;;;;0.63;0.63;;;10.30;17.90;;;;;;5089985;28;20188;-76
2022/05/10 03:02:29;;;;;;;0.63;0.63;;;10.30;38.20;;;;;;5075135;28;20300;-77
2022/05/10 03:04:57;;;;;;;0.50;0.50;;;10.40;76.30;;;;;;5071284;28;20191;-77
2022/05/10 03:07:27;;;;;;;0.60;0.60;;;10.30;75.40;;;;;;5071257;28;20550;-77
2022/05/10 03:09:52;;;;;;;0.60;0.60;;;10.30;86.50;;;;;;5070685;28;20170;-77
2022/05/10 03:12:18;;;;;;;0.50;0.50;;;10.30;94.40;;;;;;5071180;28;20186;-76
2022/05/10 03:14:44;;;;;;;0.60;0.60;;;10.30;99.90;;;;;;5071555;28;20174;-77
2022/05/10 03:17:10;;;;;;;0.50;0.50;;;10.30;99.90;;;;;;5074720;28;20270;-76
2022/05/10 03:19:37;;;;;;;0.50;0.50;;;10.30;60.40;;;;;;5074260;28;20263;-76
2022/05/10 03:22:03;;;;;;;0.50;0.50;;;10.20;29.00;;;;;;5074508;28;20718;-77
2022/05/10 03:24:30;;;;;;;0.60;0.60;;;10.20;18.60;;;;;;5074391;28;20171;-77
2022/05/10 03:26:57;;;;;;;0.50;0.50;;;10.20;20.90;;;;;;5074706;28;20170;-77
2022/05/10 03:29:25;;;;;;;0.60;0.60;;;10.20;29.70;;;;;;5074112;28;20643;-77
2022/05/10 03:31:51;;;;;;;0.50;0.50;;;10.20;46.70;;;;;;5074562;28;20226;-77
2022/05/10 03:37:02;;;;;;;0.53;0.53;;;10.10;69.00;;;;;;5086093;28;20185;-77
2022/05/10 03:39:27;;;;;;;0.60;0.60;;;10.00;59.60;;;;;;5090500;28;20182;-78
2022/05/10 03:41:53;;;;;;;0.60;0.60;;;10.00;57.20;;;;;;5094101;28;20247;-77
2022/05/10 03:44:18;;;;;;;0.50;0.50;;;10.00;99.90;;;;;;5094324;28;20729;-77
2022/05/10 03:46:45;;;;;;;0.60;0.60;;;9.90;99.90;;;;;;5094247;28;20272;-77
2022/05/10 03:49:11;;;;;;;0.53;0.53;;;9.90;86.80;;;;;;5093618;28;20178;-77
2022/05/10 03:51:36;;;;;;;0.70;0.70;;;9.90;78.80;;;;;;5094009;28;20676;-77
2022/05/10 03:54:02;;;;;;;0.50;0.50;;;9.90;51.20;;;;;;5094436;28;20170;-77
2022/05/10 03:56:28;;;;;;;0.60;0.60;;;10.00;49.00;;;;;;5094295;28;20701;-77
2022/05/10 03:58:54;;;;;;;0.70;0.70;;;10.00;42.00;;;;;;5093786;28;20178;-77
2022/05/10 04:01:20;;;;;;;0.67;0.67;;;10.00;53.20;;;;;;5093941;28;20295;-77
2022/05/10 04:03:46;;;;;;;0.50;0.50;;;10.00;57.60;;;;;;5094016;28;20193;-77
2022/05/10 04:06:12;;;;;;;0.60;0.60;;;9.90;47.20;;;;;;5088563;28;20178;-77
2022/05/10 04:08:38;;;;;;;0.60;0.60;;;9.90;48.10;;;;;;5091640;28;20561;-77
2022/05/10 04:11:08;;;;;;;0.40;0.40;;;9.90;70.70;;;;;;5093058;28;20208;-77
2022/05/10 04:13:35;;;;;;;0.67;0.67;;;9.90;92.20;;;;;;5076320;28;20182;-77
2022/05/10 04:16:00;;;;;;;0.60;0.60;;;9.90;99.90;;;;;;5073592;28;20174;-77
2022/05/10 04:18:27;;;;;;;0.60;0.60;;;10.00;99.90;;;;;;5073409;28;20182;-78
2022/05/10 04:20:52;;;;;;;0.60;0.60;;;9.90;99.90;;;;;;5081736;28;20201;-78
2022/05/10 04:23:18;;;;;;;0.60;0.60;;;10.00;99.90;;;;;;5093717;28;20215;-77
2022/05/10 04:25:44;;;;;;;0.50;0.50;;;10.10;99.90;;;;;;5088989;28;20185;-78
2022/05/10 04:28:10;;;;;;;0.60;0.60;;;10.20;99.90;;;;;;5079259;28;20251;-77
2022/05/10 04:30:35;;;;;;;0.60;0.60;;;10.40;90.10;;;;;;5073121;28;20198;-78
2022/05/10 04:33:01;;;;;;;0.63;0.63;;;10.60;46.60;;;;;;5073930;28;20177;-78
2022/05/10 04:35:26;;;;;;;0.60;0.60;;;10.70;15.00;;;;;;5074351;28;20224;-78
2022/05/10 04:37:52;;;;;;;0.50;0.50;;;10.90;1.00;;;;;;5073913;28;20178;-77
2022/05/10 04:43:05;;;;;;;0.60;0.60;;;11.40;1.00;;;;;;5074471;28;20283;-78
2022/05/10 04:45:31;;;;;;;0.60;0.60;;;11.60;1.00;;;;;;5073134;28;20257;-78
2022/05/10 04:47:57;;;;;;;0.50;0.50;;;11.80;1.00;;;;;;5073371;28;20210;-78
2022/05/10 04:50:22;;;;;;;0.50;0.50;;;12.00;1.00;;;;;;5072999;28;20175;-78
2022/05/10 04:52:48;;;;;;;0.40;0.40;;;12.20;1.00;;;;;;5074058;28;20639;-78
2022/05/10 04:55:14;;;;;;;0.50;0.50;;;12.20;1.00;;;;;;5073538;28;20269;-77
2022/05/10 04:57:41;;;;;;;0.53;0.53;;;12.40;1.00;;;;;;5072813;28;20182;-77
2022/05/10 05:00:10;;;;;;;0.40;0.40;;;12.60;1.00;;;;;;5072350;28;20178;-77
2022/05/10 05:02:36;;;;;;;0.50;0.50;;;12.80;99.90;;;;;;5072244;28;20225;-77
2022/05/10 05:05:02;;;;;;;0.40;0.40;;;12.90;99.90;;;;;;5072569;28;20190;-78
2022/05/10 05:07:28;;;;;;;0.50;0.50;;;13.20;99.90;;;;;;5072601;28;20543;-77
2022/05/10 05:09:53;;;;;;;0.40;0.40;;;13.30;1.00;;;;;;5071852;28;20182;-77
2022/05/10 05:12:19;;;;;;;0.40;0.40;;;13.30;1.00;;;;;;5072272;28;20203;-76
2022/05/10 05:14:44;;;;;;;0.40;0.40;;;13.50;1.00;;;;;;5072497;28;20225;-76
2022/05/10 05:17:10;;;;;;;0.30;0.30;;;13.60;1.00;;;;;;5072317;28;20261;-76
2022/05/10 05:19:35;;;;;;;0.33;0.33;;;13.50;1.00;;;;;;5072105;28;20183;-77
2022/05/10 05:22:01;;;;;;;0.50;0.50;;;13.40;1.00;;;;;;5072294;28;20214;-77
2022/05/10 05:24:27;;;;;;;0.40;0.40;;;13.40;99.90;;;;;;5072714;28;20178;-77
2022/05/10 05:26:53;;;;;;;0.60;0.60;;;13.30;1.00;;;;;;5072925;28;20190;-79
2022/05/10 05:29:19;;;;;;;0.47;0.47;;;13.10;1.00;;;;;;5072727;28;20179;-79
2022/05/10 05:31:46;;;;;;;0.40;0.40;;;13.00;1.00;;;;;;5073107;28;20720;-78
2022/05/10 05:34:11;;;;;;;0.50;0.50;;;12.90;1.00;;;;;;5072955;28;20186;-78
2022/05/10 05:36:37;;;;;;;0.50;0.50;;;12.90;1.00;;;;;;5072605;28;20167;-78
2022/05/10 05:39:03;;;;;;;0.47;0.47;;;12.90;1.00;;;;;;5071327;28;20179;-78
2022/05/10 05:41:28;;;;;;;0.50;0.50;;;12.90;1.00;;;;;;5072437;28;20209;-77
2022/05/10 05:43:54;;;;;;;0.40;0.40;;;12.80;1.00;;;;;;5072175;28;20260;-77
2022/05/10 05:46:19;;;;;;;0.40;0.40;;;12.90;1.00;;;;;;5072710;28;20312;-78
2022/05/10 05:48:46;;;;;;;0.40;0.40;;;13.00;1.00;;;;;;5072300;28;20175;-78
2022/05/10 05:51:12;;;;;;;0.60;0.60;;;13.00;1.00;;;;;;5071983;28;20301;-78
2022/05/10 05:53:37;;;;;;;0.60;0.60;;;13.10;1.00;;;;;;5072286;28;20666;-78
2022/05/10 05:56:08;;;;;;;0.40;0.40;;;13.30;1.00;;;;;;5072306;28;20178;-78
2022/05/10 05:58:35;;;;;;;0.47;0.47;;;13.40;1.00;;;;;;5072342;28;20162;-78
2022/05/10 06:01:01;;;;;;;0.40;0.40;;;13.50;1.00;;;;;;5072809;28;20742;-79
2022/05/10 06:03:27;;;;;;;0.40;0.40;;;13.60;1.00;;;;;;5073343;28;20301;-78
2022/05/10 06:05:52;;;;;;;0.47;0.47;;;13.80;1.00;;;;;;5077267;22;20255;-79
2022/05/10 06:08:19;;;;;;;0.50;0.50;;;13.90;1.00;;;;;;5041621;28;20259;-80
2022/05/10 06:10:49;;;;;;;0.40;0.40;;;14.10;1.00;;;;;;5038230;28;20211;-79
2022/05/10 06:13:18;;;;;;;0.40;0.40;;;14.20;1.00;;;;;;5038767;28;20191;-80
2022/05/10 06:15:44;;;;;;;0.40;0.40;;;14.30;1.00;;;;;;5039254;28;20199;-79
2022/05/10 06:18:09;;;;;;;0.40;0.40;;;14.40;1.00;;;;;;5039580;28;20555;-79
2022/05/10 06:20:35;;;;;;;0.40;0.40;;;14.40;1.00;;;;;;5032395;28;20200;-78
2022/05/10 06:23:01;;;;;;;0.40;0.40;;;14.50;1.00;;;;;;5033518;28;20254;-78
2022/05/10 06:25:28;;;;;;;0.47;0.47;;;14.60;1.00;;;;;;5037025;28;20168;-78
2022/05/10 06:27:55;;;;;;;0.40;0.40;;;14.50;1.00;;;;;;5036447;28;20176;-79
2022/05/10 06:30:22;;;;;;;0.40;0.40;;;14.60;1.00;;;;;;5036612;28;20198;-77
2022/05/10 06:32:48;;;;;;;0.40;0.40;;;14.60;1.00;;;;;;5034934;28;20225;-77
2022/05/10 06:35:16;;;;;;;0.30;0.30;;;14.90;1.00;;;;;;5033015;28;20168;-77
2022/05/10 06:40:25;;;;;;;0.37;0.37;;;15.30;1.00;;;;;;5032313;28;20310;-77
2022/05/10 06:42:51;;;;;;;0.40;0.40;;;15.50;99.90;;;;;;5032916;28;20306;-77
2022/05/10 06:45:18;;;;;;;0.40;0.40;;;15.60;1.00;;;;;;5033423;28;20183;-77
2022/05/10 06:47:47;;;;;;;0.30;0.30;;;15.70;99.90;;;;;;5031648;28;20767;-80
2022/05/10 06:50:16;;;;;;;0.40;0.40;;;15.70;99.90;;;;;;5032369;28;20656;-77
2022/05/10 06:52:41;;;;;;;0.33;0.33;;;15.80;1.00;;;;;;5040865;28;20180;-77
2022/05/10 06:55:09;;;;;;;0.40;0.40;;;15.80;99.90;;;;;;5031357;28;20184;-76
2022/05/10 06:57:34;;;;;;;0.30;0.30;;;15.90;1.00;;;;;;5034128;28;20179;-75
2022/05/10 07:00:00;;;;;;;0.40;0.40;;;16.10;1.00;;;;;;5033424;28;20176;-76
2022/05/10 07:02:25;;;;;;;0.40;0.40;;;16.30;1.00;;;;;;5035806;28;20212;-77
2022/05/10 07:04:52;;;;;;;0.30;0.30;;;16.60;99.90;;;;;;5051790;28;20659;-76
2022/05/10 07:07:17;;;;;;;0.30;0.30;;;16.70;1.00;;;;;;5042527;28;20274;-77
2022/05/10 07:09:44;;;;;;;0.40;0.40;;;16.80;1.00;;;;;;5033840;28;20266;-77
2022/05/10 07:12:10;;;;;;;0.43;0.43;;;17.00;1.00;;;;;;5034204;28;20211;-76
2022/05/10 07:14:35;;;;;;;0.30;0.30;;;17.40;99.90;;;;;;5033797;28;20246;-76
2022/05/10 07:17:01;;;;;;;0.30;0.30;;;17.60;1.00;;;;;;5034947;28;20541;-77
2022/05/10 07:19:26;;;;;;;0.30;0.30;;;17.70;1.00;;;;;;5033579;28;20180;-75
2022/05/10 07:21:52;;;;;;;0.40;0.40;;;18.00;1.00;;;;;;5033889;28;20223;-75
2022/05/10 07:24:19;;;;;;;0.40;0.40;;;18.10;99.90;;;;;;5033867;28;20179;-76
2022/05/10 07:26:47;;;;;;;0.30;0.30;;;18.50;18.10;;;;;;5034285;28;20237;-77
2022/05/10 07:29:15;;;;;;;0.30;0.30;;;18.70;1.00;;;;;;5033727;28;20377;-75
2022/05/10 07:31:41;;;;;;;0.30;0.30;;;18.80;1.00;;;;;;5030776;28;20196;-74
2022/05/10 07:34:08;;;;;;;0.30;0.30;;;19.00;1.00;;;;;;5033997;28;20326;-76
2022/05/10 07:36:33;;;;;;;0.30;0.30;;;19.30;1.00;;;;;;5033267;28;20187;-75
2022/05/10 07:39:04;;;;;;;0.40;0.40;;;19.40;99.90;;;;;;5032346;28;20183;-77
2022/05/10 07:41:30;;;;;;;0.30;0.30;;;19.80;99.90;;;;;;5034721;28;20560;-77
2022/05/10 07:43:56;;;;;;;0.30;0.30;;;20.10;99.90;;;;;;5043417;28;20190;-77
2022/05/10 07:46:22;;;;;;;0.30;0.30;;;20.70;14.70;;;;;;5057431;28;20238;-76
2022/05/10 07:48:48;;;;;;;0.33;0.33;;;21.10;1.00;;;;;;5068116;28;20183;-77
2022/05/10 07:51:14;;;;;;;0.40;0.40;;;21.50;1.00;;;;;;5050862;28;20202;-78
2022/05/10 07:53:41;;;;;;;0.20;0.20;;;21.90;1.00;;;;;;5032025;28;20176;-77
2022/05/10 07:56:06;;;;;;;0.20;0.20;;;22.30;1.00;;;;;;5033089;28;20204;-76
2022/05/10 07:58:32;;;;;;;0.30;0.30;;;22.80;1.00;;;;;;5033747;28;20631;-78
2022/05/10 08:00:59;;;;;;;0.43;0.43;;;23.10;1.00;;;;;;5032461;28;20188;-77
2022/05/10 08:03:25;;;;;;;0.37;0.37;;;23.40;1.00;;;;;;5032738;28;20204;-76
2022/05/10 08:05:55;;;;;;;0.40;0.40;;;23.70;1.00;;;;;;5033132;28;20688;-76
2022/05/10 08:08:20;;;;;;;0.30;0.30;;;23.90;1.00;;;;;;5033066;28;20187;-77
2022/05/10 08:10:48;;;;;;;0.20;0.20;;;24.10;1.00;;;;;;5030346;28;20279;-76
2022/05/10 08:13:20;;;;;;;0.20;0.20;;;24.20;1.00;;;;;;5033986;28;20184;-75
2022/05/10 08:15:46;;;;;;;0.40;0.40;;;25.00;1.00;;;;;;5053280;28;20175;-76
2022/05/10 08:18:12;;;;;;;0.40;0.40;;;25.00;1.00;;;;;;5053498;28;20171;-76
2022/05/10 08:20:38;;;;;;;0.40;0.40;;;25.10;1.00;;;;;;5052876;28;20672;-77
2022/05/10 08:23:06;;;;;;;0.40;0.40;;;25.50;1.00;;;;;;5053783;28;20577;-78
2022/05/10 08:25:32;;;;;;;0.40;0.40;;;25.80;1.00;;;;;;5042482;28;20210;-77
2022/05/10 08:27:58;;;;;;;0.40;0.40;;;25.90;1.00;;;;;;5029210;28;20199;-76
2022/05/10 08:30:24;;;;;;;0.30;0.30;;;26.00;1.00;;;;;;5028949;28;20649;-75
2022/05/10 08:32:49;;;;;;;0.50;0.50;;;25.90;1.00;;;;;;5032604;28;20191;-76
2022/05/10 08:35:15;;;;;;;0.50;0.50;;;26.00;1.00;;;;;;5032677;28;20168;-75
2022/05/10 08:37:40;;;;;;;0.50;0.50;;;26.40;1.00;;;;;;5032048;28;20175;-79
2022/05/10 08:40:20;;;;;;;0.40;0.40;;;26.20;1.00;;;;;;5012274;28;21005;-78
2022/05/10 08:42:48;;;;;;;0.50;0.50;;;26.30;1.00;;;;;;5016851;28;20281;-76
2022/05/10 08:45:14;;;;;;;0.30;0.30;;;26.50;1.00;;;;;;5019549;28;20172;-75
2022/05/10 08:47:42;;;;;;;0.40;0.40;;;26.80;1.00;;;;;;5031925;28;20187;-75
2022/05/10 08:50:10;;;;;;;0.40;0.40;;;26.80;1.00;;;;;;5029566;28;20168;-76
2022/05/10 08:52:40;;;;;;;0.50;0.50;;;27.00;1.00;;;;;;5032116;28;20192;-75
2022/05/10 08:55:09;;;;;;;0.40;0.40;;;27.40;1.00;;;;;;5032454;28;20171;-76
2022/05/10 08:57:48;;;;;;;0.40;0.40;;;27.60;1.00;;;;;;5019961;28;20192;-77
2022/05/10 09:00:33;;;;;;;0.60;0.60;;;27.30;1.00;;;;;;5008320;28;20191;-76
2022/05/10 09:03:01;;;;;;;0.50;0.50;;;27.10;1.00;;;;;;5001496;28;20215;-76
2022/05/10 09:05:40;;;;;;;0.50;0.50;;;27.30;1.00;;;;;;5007901;28;20199;-79
2022/05/10 09:08:32;;;;;;;0.50;0.50;;;27.00;1.00;;;;;;5028490;28;20229;-76
2022/05/10 09:11:04;;;;;;;0.30;0.30;;;27.30;1.00;;;;;;5030053;28;20246;-75
2022/05/10 09:13:31;;;;;;;0.40;0.40;;;28.00;1.00;;;;;;5030403;28;20222;-77
2022/05/10 09:16:00;;;;;;;0.50;0.50;;;28.50;1.00;;;;;;5032637;28;20196;-75
2022/05/10 09:18:33;;;;;;;0.50;0.50;;;28.20;1.00;;;;;;5032376;28;20214;-76
2022/05/10 09:21:22;;;;;;;0.70;0.70;;;28.40;1.00;;;;;;5032057;28;20559;-75
2022/05/10 09:24:04;;;;;;;0.50;0.50;;;28.50;1.00;;;;;;5032293;28;20220;-75
2022/05/10 09:26:42;;;;;;;0.60;0.60;;;29.30;1.00;;;;;;5031810;28;20263;-74
2022/05/10 09:29:39;;;;;;;0.50;0.50;;;29.90;1.00;;;;;;5029464;28;20180;-76
2022/05/10 09:35:26;;;;;;;0.50;0.50;;;29.90;1.00;;;;;;5032278;28;20202;-77
2022/05/10 09:37:55;;;;;;;0.60;0.60;;;29.90;1.00;;;;;;5029568;28;20179;-77
2022/05/10 09:40:28;;;;;;;0.53;0.53;;;29.60;1.00;;;;;;5031436;28;20172;-77
2022/05/10 09:43:23;;;;;;;0.50;0.50;;;29.50;1.00;;;;;;5030069;28;20557;-77
2022/05/10 09:46:19;;;;;;;0.40;0.40;;;29.70;1.00;;;;;;5028526;28;20645;-78
2022/05/10 09:48:46;;;;;;;0.60;0.60;;;30.00;1.00;;;;;;5027821;28;20179;-77
2022/05/10 09:51:24;;;;;;;0.63;0.63;;;29.90;1.00;;;;;;5030068;28;20204;-77
2022/05/10 09:53:51;;;;;;;0.50;0.50;;;29.60;1.00;;;;;;5030985;28;20180;-77
2022/05/10 09:56:23;;;;;;;0.40;0.40;;;29.60;1.00;;;;;;5029960;28;20184;-77
2022/05/10 09:59:11;;;;;;;0.50;0.50;;;29.50;1.00;;;;;;5031599;28;20183;-74
2022/05/10 10:01:48;;;;;;;0.57;0.57;;;28.90;1.00;;;;;;5029241;28;20184;-76
2022/05/10 10:04:21;;;;;;;0.50;0.50;;;29.00;1.00;;;;;;5030334;28;20245;-76
2022/05/10 10:07:07;;;;;;;0.50;0.50;;;29.30;1.00;;;;;;5029002;28;20191;-76
2022/05/10 10:09:38;;;;;;;0.50;0.50;;;30.00;1.00;;;;;;5031181;28;20259;-76
2022/05/10 10:12:05;;;;;;;0.60;0.60;;;30.40;1.00;;;;;;5030026;28;20749;-77
2022/05/10 10:14:46;;;;;;;0.60;0.60;;;30.60;1.00;;;;;;5030299;28;20247;-76
2022/05/10 10:17:36;;;;;;;0.60;0.60;;;30.10;1.00;;;;;;5029178;28;20201;-74
2022/05/10 10:20:23;;;;;;;0.57;0.57;;;29.40;1.00;;;;;;5029400;28;20179;-74
2022/05/10 10:22:54;;;;;;;0.50;0.50;;;29.00;1.00;;;;;;5029030;28;20239;-75
2022/05/10 10:25:32;;;;;;;0.50;0.50;;;28.70;1.00;;;;;;5031475;28;20167;-75
2022/05/10 10:28:22;;;;;;;0.40;0.40;;;28.50;1.00;;;;;;5032526;28;20175;-75
2022/05/10 10:30:59;;;;;;;0.30;0.30;;;28.40;1.00;;;;;;5033498;28;20191;-75
2022/05/10 10:34:01;;;;;;;0.40;0.40;;;28.40;1.00;;;;;;5031279;28;20179;-74
2022/05/10 10:36:33;;;;;;;0.30;0.30;;;28.60;1.00;;;;;;5030000;28;20254;-76
2022/05/10 10:39:07;;;;;;;0.50;0.50;;;28.50;1.00;;;;;;5032445;28;20283;-76
2022/05/10 10:42:01;;;;;;;0.40;0.40;;;28.50;1.00;;;;;;5031917;28;20245;-75
2022/05/10 10:44:29;;;;;;;0.50;0.50;;;28.40;1.00;;;;;;5034055;28;20607;-75
2022/05/10 10:47:29;;;;;;;0.40;0.40;;;28.80;1.00;;;;;;5034246;28;20222;-75
2022/05/10 10:49:59;;;;;;;0.50;0.50;;;29.40;1.00;;;;;;5028645;28;20190;-75
2022/05/10 10:52:27;;;;;;;0.50;0.50;;;28.80;1.00;;;;;;5031158;28;20202;-74
2022/05/10 10:54:53;;;;;;;0.50;0.50;;;28.50;1.00;;;;;;5034293;28;20258;-75
2022/05/10 10:57:56;;;;;;;0.40;0.40;;;28.30;1.00;;;;;;5032262;28;20287;-75
2022/05/10 11:00:48;;;;;;;0.40;0.40;;;28.20;1.00;;;;;;5001292;28;20672;-76
2022/05/10 11:03:42;;;;;;;0.30;0.30;;;28.00;1.00;;;;;;5031567;28;20296;-75
2022/05/10 11:06:37;;;;;;;0.50;0.50;;;28.50;1.00;;;;;;5032605;28;20196;-75
2022/05/10 11:09:12;;;;;;;0.43;0.43;;;28.30;1.00;;;;;;5032098;28;20191;-74
2022/05/10 11:11:57;;;;;;;0.50;0.50;;;27.30;1.00;;;;;;5033708;28;20230;-75
2022/05/10 11:14:41;;;;;;;0.40;0.40;;;27.10;1.00;;;;;;5033424;28;20203;-75
2022/05/10 11:17:15;;;;;;;0.50;0.50;;;27.00;1.00;;;;;;5029718;28;20186;-74
2022/05/10 11:20:16;;;;;;;0.47;0.47;;;27.10;1.00;;;;;;5030712;28;20179;-76
2022/05/10 11:22:54;;;;;;;0.30;0.30;;;27.90;1.00;;;;;;5032806;28;20235;-75
2022/05/10 11:25:38;;;;;;;0.50;0.50;;;28.70;1.00;;;;;;5032112;28;20168;-75
2022/05/10 11:28:57;;;;;;;0.30;0.30;;;29.30;1.00;;;;;;5033242;28;20242;-74
2022/05/10 11:31:49;;;;;;;0.53;0.53;;;29.00;1.00;;;;;;4971348;28;20244;-75
2022/05/10 11:34:18;;;;;;;0.40;0.40;;;28.90;1.00;;;;;;5032560;28;20246;-75
2022/05/10 11:36:48;;;;;;;0.40;0.40;;;28.90;1.00;;;;;;5031587;28;20171;-75
2022/05/10 11:39:44;;;;;;;0.50;0.50;;;28.50;1.00;;;;;;5031975;28;20180;-75
2022/05/10 11:42:16;;;;;;;0.40;0.40;;;28.70;1.00;;;;;;5031668;28;20625;-74
2022/05/10 11:44:47;;;;;;;0.40;0.40;;;29.20;1.00;;;;;;5030776;28;20172;-74
2022/05/10 11:47:31;;;;;;;0.40;0.40;;;29.00;1.00;;;;;;5032764;28;20217;-74
2022/05/10 11:50:17;;;;;;;0.33;0.33;;;28.70;1.00;;;;;;5031995;28;20171;-75
2022/05/10 11:53:17;;;;;;;0.53;0.53;;;28.90;1.00;;;;;;5030500;28;20206;-75
2022/05/10 11:55:55;;;;;;;0.40;0.40;;;29.00;1.00;;;;;;5030590;28;20172;-74
2022/05/10 11:58:23;;;;;;;0.50;0.50;;;29.00;1.00;;;;;;5030331;28;20542;-74
2022/05/10 12:00:55;;;;;;;0.33;0.33;;;28.90;1.00;;;;;;5032095;28;20283;-75
2022/05/10 12:03:36;;;;;;;0.30;0.30;;;28.80;1.00;;;;;;5030069;28;20218;-74
2022/05/10 12:06:23;;;;;;;0.40;0.40;;;28.70;1.00;;;;;;5065911;22;1037706;-79
2022/05/10 12:08:57;;;;;;;0.30;0.30;;;28.50;1.00;;;;;;5075552;28;20174;-81
2022/05/10 12:11:30;;;;;;;0.50;0.50;;;28.20;1.00;;;;;;5073519;28;20194;-80
2022/05/10 12:22:13;;;;;;;0.47;0.47;;;28.90;1.00;;;;;;5070383;28;20588;-76
2022/05/10 12:24:45;;;;;;;0.50;0.50;;;29.50;1.00;;;;;;5072703;28;20174;-76
2022/05/10 12:27:10;;;;;;;0.40;0.40;;;30.00;1.00;;;;;;5070116;28;20257;-76
2022/05/10 12:29:38;;;;;;;0.30;0.30;;;29.90;1.00;;;;;;5072080;28;20253;-76
2022/05/10 12:32:10;;;;;;;0.30;0.30;;;29.60;1.00;;;;;;5073455;28;20222;-77
2022/05/10 12:34:57;;;;;;;0.40;0.40;;;29.10;1.00;;;;;;5074567;28;20202;-76
2022/05/10 12:37:22;;;;;;;0.50;0.50;;;29.00;1.00;;;;;;5072671;28;20260;-76
2022/05/10 12:40:12;;;;;;;0.43;0.43;;;28.80;1.00;;;;;;5070628;28;20179;-76
2022/05/10 12:43:28;;;;;;;0.50;0.50;;;29.30;1.00;;;;;;5064439;28;20260;-77
2022/05/10 12:46:22;;;;;;;0.43;0.43;;;29.70;1.00;;;;;;5070589;28;20236;-77
2022/05/10 12:49:03;;;;;;;0.40;0.40;;;29.90;1.00;;;;;;5073824;28;20166;-79
2022/05/10 12:52:13;;;;;;;0.40;0.40;;;30.30;1.00;;;;;;5074875;28;20273;-76
2022/05/10 12:54:42;;;;;;;0.40;0.40;;;30.50;1.00;;;;;;5070822;28;20175;-76
2022/05/10 12:57:12;;;;;;;0.40;0.40;;;30.90;1.00;;;;;;5072724;28;20281;-77
2022/05/10 12:59:44;;;;;;;0.53;0.53;;;30.90;1.00;;;;;;5064042;28;20193;-76
2022/05/10 13:02:13;;;;;;;0.50;0.50;;;30.90;1.00;;;;;;5057214;28;20211;-76
2022/05/10 13:04:46;;;;;;;0.60;0.60;;;30.80;1.00;;;;;;5053715;28;20250;-77
2022/05/10 13:07:14;;;;;;;0.43;0.43;;;30.70;1.00;;;;;;5065425;28;20229;-76
2022/05/10 13:10:04;;;;;;;0.50;0.50;;;30.50;1.00;;;;;;5068014;28;20546;-76
2022/05/10 13:12:35;;;;;;;0.50;0.50;;;30.30;1.00;;;;;;5070020;28;20190;-77
2022/05/10 13:15:08;;;;;;;0.60;0.60;;;30.50;1.00;;;;;;5072588;28;20277;-76
2022/05/10 13:17:35;;;;;;;0.50;0.50;;;30.60;1.00;;;;;;5064009;28;20176;-78
2022/05/10 13:20:08;;;;;;;0.60;0.60;;;30.30;1.00;;;;;;5067478;28;20183;-76
2022/05/10 13:22:34;;;;;;;0.50;0.50;;;30.10;1.00;;;;;;5052216;28;20793;-76
2022/05/10 13:25:04;;;;;;;0.50;0.50;;;30.10;1.00;;;;;;5055064;28;20630;-77
2022/05/10 13:27:35;;;;;;;0.53;0.53;;;30.30;1.00;;;;;;5070748;28;20178;-78
2022/05/10 13:30:09;;;;;;;0.40;0.40;;;30.40;1.00;;;;;;5068246;28;21026;-77
2022/05/10 13:32:37;;;;;;;0.50;0.50;;;30.40;1.00;;;;;;5072237;28;20194;-76
2022/05/10 13:35:19;;;;;;;0.60;0.60;;;30.70;1.00;;;;;;5072551;28;20201;-77
2022/05/10 13:37:51;;;;;;;0.60;0.60;;;30.90;1.00;;;;;;5064789;28;20253;-76
2022/05/10 13:40:28;;;;;;;0.40;0.40;;;30.60;1.00;;;;;;5070966;28;20170;-76
2022/05/10 13:42:56;;;;;;;0.40;0.40;;;30.70;1.00;;;;;;5072574;28;20262;-77
2022/05/10 13:45:26;;;;;;;0.50;0.50;;;30.90;1.00;;;;;;5072304;28;20184;-76